createdAt,value
2023-08-28T00:01:15.212Z,54.97
2023-08-28T00:03:16.727Z,54.63
2023-08-28T00:05:18.241Z,54.67
2023-08-28T00:07:19.772Z,54.54
2023-08-28T00:09:21.264Z,54.81
2023-08-28T00:11:22.777Z,54.92
2023-08-28T00:13:24.400Z,54.70
2023-08-28T00:15:26.210Z,55.01
2023-08-28T00:17:28.379Z,54.92
2023-08-28T00:19:29.888Z,54.72
2023-08-28T00:21:31.476Z,54.72
2023-08-28T00:23:33.500Z,54.89
2023-08-28T00:25:35.123Z,54.82
2023-08-28T00:27:37.061Z,54.88
2023-08-28T00:29:38.534Z,54.88
2023-08-28T00:31:40.045Z,54.64
2023-08-28T00:33:41.537Z,54.93
2023-08-28T00:35:43.973Z,54.97
2023-08-28T00:37:46.363Z,54.72
2023-08-28T00:39:47.848Z,55.07
2023-08-28T00:41:49.491Z,54.95
2023-08-28T00:43:51.042Z,54.69
2023-08-28T00:45:52.605Z,54.87
2023-08-28T00:47:54.238Z,54.81
2023-08-28T00:49:55.873Z,54.90
2023-08-28T00:51:58.123Z,54.86
2023-08-28T00:53:59.640Z,54.67
2023-08-28T00:56:01.445Z,55.07
2023-08-28T00:58:03.586Z,55.00
2023-08-28T01:00:06.902Z,55.00
2023-08-28T01:02:08.441Z,54.84
2023-08-28T01:04:09.961Z,54.96
2023-08-28T01:06:15.367Z,54.98
2023-08-28T01:08:25.001Z,54.94
2023-08-28T01:10:35.440Z,54.82
2023-08-28T01:12:42.829Z,54.97
2023-08-28T01:14:51.049Z,54.67
2023-08-28T01:16:54.963Z,55.02
2023-08-28T01:18:57.213Z,54.64
2023-08-28T01:20:59.015Z,54.88
2023-08-28T01:23:19.419Z,54.92
2023-08-28T01:25:21.397Z,54.98
2023-08-28T01:27:23.432Z,54.76
2023-08-28T01:29:25.171Z,54.99
2023-08-28T01:31:26.716Z,55.01
2023-08-28T01:33:28.372Z,55.03
2023-08-28T01:35:32.380Z,54.86
2023-08-28T01:37:50.742Z,54.93
2023-08-28T01:39:53.057Z,54.96
2023-08-28T01:41:56.279Z,55.08
2023-08-28T01:44:02.039Z,55.11
2023-08-28T01:46:05.350Z,54.78
2023-08-28T01:48:07.629Z,55.03
2023-08-28T01:50:09.270Z,54.97
2023-08-28T01:52:10.782Z,54.82
2023-08-28T01:54:12.407Z,55.00
2023-08-28T01:56:13.949Z,54.97
2023-08-28T01:58:15.713Z,55.20
2023-08-28T02:00:17.191Z,54.71
2023-08-28T02:02:18.699Z,55.13
2023-08-28T02:04:20.238Z,55.09
2023-08-28T02:06:21.813Z,55.22
2023-08-28T02:08:23.410Z,55.13
2023-08-28T02:10:24.925Z,54.72
2023-08-28T02:12:26.375Z,55.25
2023-08-28T02:16:35.705Z,55.12
2023-08-28T02:18:37.345Z,55.17
2023-08-28T02:20:38.999Z,55.16
2023-08-28T02:22:40.428Z,55.07
2023-08-28T02:24:41.941Z,55.22
2023-08-28T02:26:43.558Z,54.97
2023-08-28T02:28:45.049Z,54.84
2023-08-28T02:30:46.945Z,55.05
2023-08-28T02:32:48.494Z,55.03
2023-08-28T02:34:50.030Z,55.01
2023-08-28T02:36:51.464Z,55.24
2023-08-28T02:38:53.002Z,55.00
2023-08-28T02:40:54.444Z,55.18
2023-08-28T02:42:56.605Z,55.19
2023-08-28T02:44:58.043Z,55.14
2023-08-28T02:46:59.474Z,55.22
2023-08-28T02:49:00.934Z,55.27
2023-08-28T02:51:02.465Z,55.18
2023-08-28T02:53:04.851Z,55.13
2023-08-28T02:55:07.005Z,55.30
2023-08-28T02:57:08.489Z,55.02
2023-08-28T02:59:10.052Z,54.81
2023-08-28T03:01:11.557Z,55.14
2023-08-28T03:03:13.130Z,55.18
2023-08-28T03:05:14.897Z,55.35
2023-08-28T03:07:16.384Z,54.86
2023-08-28T03:09:17.864Z,55.03
2023-08-28T03:11:19.509Z,55.44
2023-08-28T03:13:21.336Z,54.97
2023-08-28T03:15:22.902Z,55.21
2023-08-28T03:17:24.520Z,54.96
2023-08-28T03:19:26.037Z,55.05
2023-08-28T03:21:27.552Z,54.97
2023-08-28T03:23:29.188Z,55.25
2023-08-28T03:25:30.623Z,55.39
2023-08-28T03:27:32.593Z,55.05
2023-08-28T03:29:34.157Z,55.45
2023-08-28T03:31:35.724Z,55.34
2023-08-28T03:33:37.329Z,55.19
2023-08-28T03:35:38.848Z,55.32
2023-08-28T03:37:40.408Z,55.01
2023-08-28T03:39:42.009Z,55.32
2023-08-28T03:41:43.483Z,55.29
2023-08-28T03:43:44.910Z,55.37
2023-08-28T03:45:46.440Z,55.06
2023-08-28T03:47:48.001Z,55.46
2023-08-28T03:49:49.504Z,55.39
2023-08-28T03:51:51.063Z,55.10
2023-08-28T03:53:52.574Z,55.02
2023-08-28T03:55:54.620Z,55.41
2023-08-28T03:57:56.868Z,55.41
2023-08-28T03:59:58.562Z,55.49
2023-08-28T04:02:00.987Z,55.54
2023-08-28T04:04:02.608Z,55.49
2023-08-28T04:06:04.075Z,55.25
2023-08-28T04:08:06.090Z,55.34
2023-08-28T04:10:07.825Z,55.55
2023-08-28T04:12:09.376Z,55.57
2023-08-28T04:14:11.051Z,55.40
2023-08-28T04:16:12.597Z,55.42
2023-08-28T04:18:14.110Z,55.33
2023-08-28T04:20:16.388Z,55.60
2023-08-28T04:22:20.866Z,55.47
2023-08-28T04:24:24.089Z,55.62
2023-08-28T04:26:25.682Z,55.26
2023-08-28T04:28:28.017Z,55.74
2023-08-28T04:30:29.563Z,55.23
2023-08-28T04:32:31.088Z,55.46
2023-08-28T04:34:32.608Z,55.58
2023-08-28T04:36:34.171Z,55.36
2023-08-28T04:38:35.648Z,55.36
2023-08-28T04:40:37.299Z,55.72
2023-08-28T04:42:38.853Z,55.67
2023-08-28T04:44:40.343Z,55.66
2023-08-28T04:46:41.982Z,55.63
2023-08-28T04:48:43.514Z,55.51
2023-08-28T04:50:45.061Z,55.61
2023-08-28T04:52:46.572Z,55.44
2023-08-28T04:54:48.097Z,55.44
2023-08-28T04:56:49.872Z,55.54
2023-08-28T04:58:52.538Z,55.50
2023-08-28T05:00:54.067Z,55.57
2023-08-28T05:02:55.798Z,55.59
2023-08-28T05:04:57.361Z,55.78
2023-08-28T05:06:58.849Z,55.54
2023-08-28T05:09:00.384Z,55.73
2023-08-28T05:11:04.264Z,55.66
2023-08-28T05:13:06.143Z,55.46
2023-08-28T05:15:08.040Z,55.33
2023-08-28T05:17:09.535Z,55.59
2023-08-28T05:19:11.026Z,55.47
2023-08-28T05:21:12.529Z,55.35
2023-08-28T05:23:13.977Z,55.41
2023-08-28T05:25:15.725Z,55.78
2023-08-28T05:27:17.177Z,55.64
2023-08-28T05:29:18.661Z,55.80
2023-08-28T05:31:20.119Z,55.75
2023-08-28T05:33:21.640Z,55.54
2023-08-28T05:35:23.406Z,55.64
2023-08-28T05:37:25.820Z,55.86
2023-08-28T05:39:27.364Z,55.61
2023-08-28T05:41:28.808Z,55.56
2023-08-28T05:43:30.359Z,55.44
2023-08-28T05:45:31.987Z,55.83
2023-08-28T05:47:34.223Z,55.49
2023-08-28T05:49:35.692Z,55.74
2023-08-28T05:51:37.200Z,55.68
2023-08-28T05:53:39.420Z,55.75
2023-08-28T05:55:41.753Z,55.46
2023-08-28T05:57:43.297Z,55.88
2023-08-28T05:59:46.724Z,55.49
2023-08-28T06:01:48.364Z,55.62
2023-08-28T06:03:52.085Z,55.69
2023-08-28T06:05:53.616Z,55.73
2023-08-28T06:07:55.133Z,55.73
2023-08-28T06:09:56.627Z,55.46
2023-08-28T06:11:58.261Z,55.63
2023-08-28T06:14:00.053Z,55.75
2023-08-28T06:16:01.522Z,55.73
2023-08-28T06:18:03.452Z,55.51
2023-08-28T06:20:05.805Z,55.46
2023-08-28T06:22:07.365Z,55.35
2023-08-28T06:24:08.849Z,55.44
2023-08-28T06:26:10.299Z,55.51
2023-08-28T06:28:11.720Z,55.68
2023-08-28T06:30:13.347Z,55.81
2023-08-28T06:32:14.942Z,55.50
2023-08-28T06:34:16.516Z,55.72
2023-08-28T06:36:18.067Z,55.68
2023-08-28T06:38:19.585Z,55.70
2023-08-28T06:40:21.081Z,55.32
2023-08-28T06:42:23.964Z,55.67
2023-08-28T06:44:25.866Z,55.39
2023-08-28T06:46:27.972Z,55.46
2023-08-28T06:48:29.566Z,55.66
2023-08-28T06:50:31.096Z,55.58
2023-08-28T06:52:32.742Z,55.51
2023-08-28T06:54:49.648Z,55.57
2023-08-28T06:56:53.282Z,55.43
2023-08-28T06:58:54.800Z,55.52
2023-08-28T07:00:56.380Z,55.67
2023-08-28T07:02:58.600Z,55.69
2023-08-28T07:05:00.197Z,55.69
2023-08-28T07:07:01.788Z,55.74
2023-08-28T07:09:03.417Z,55.64
2023-08-28T07:11:04.880Z,55.65
2023-08-28T07:13:06.909Z,55.31
2023-08-28T07:15:11.268Z,55.18
2023-08-28T07:17:12.778Z,55.47
2023-08-28T07:19:14.653Z,55.30
2023-08-28T07:21:16.915Z,55.46
2023-08-28T07:23:18.429Z,55.57
2023-08-28T07:25:23.012Z,55.47
2023-08-28T07:27:24.716Z,55.37
2023-08-28T07:29:26.233Z,55.68
2023-08-28T07:31:27.659Z,55.33
2023-08-28T07:33:29.191Z,55.15
2023-08-28T07:35:35.426Z,54.93
2023-08-28T07:37:37.407Z,55.16
2023-08-28T07:39:39.328Z,55.01
2023-08-28T07:41:41.010Z,55.11
2023-08-28T07:43:43.890Z,55.17
2023-08-28T07:45:45.456Z,55.44
2023-08-28T07:47:47.018Z,55.37
2023-08-28T07:49:48.976Z,55.29
2023-08-28T07:51:50.437Z,55.36
2023-08-28T07:53:52.012Z,55.41
2023-08-28T07:55:53.615Z,55.82
2023-08-28T07:57:55.126Z,55.84
2023-08-28T07:59:56.729Z,55.56
2023-08-28T08:02:01.382Z,55.95
2023-08-28T08:04:02.941Z,55.68
2023-08-28T08:06:04.681Z,55.80
2023-08-28T08:08:06.333Z,55.74
2023-08-28T08:10:11.788Z,55.83
2023-08-28T08:12:13.314Z,55.82
2023-08-28T08:14:14.782Z,55.75
2023-08-28T08:16:16.513Z,55.69
2023-08-28T08:18:18.176Z,55.69
2023-08-28T08:20:21.247Z,55.74
2023-08-28T08:22:22.685Z,55.78
2023-08-28T08:24:24.284Z,55.97
2023-08-28T08:26:25.751Z,55.64
2023-08-28T08:28:27.257Z,55.42
2023-08-28T08:30:28.776Z,55.65
2023-08-28T08:32:30.381Z,55.90
2023-08-28T08:34:33.482Z,55.67
2023-08-28T08:36:34.926Z,55.78
2023-08-28T08:38:36.618Z,55.65
2023-08-28T08:40:40.661Z,55.69
2023-08-28T08:42:42.313Z,55.51
2023-08-28T08:44:43.810Z,55.74
2023-08-28T08:46:48.691Z,55.32
2023-08-28T08:48:50.710Z,55.40
2023-08-28T08:50:55.432Z,55.57
2023-08-28T08:53:01.258Z,55.15
2023-08-28T08:55:09.403Z,55.45
2023-08-28T08:57:34.201Z,55.44
2023-08-28T08:59:35.958Z,55.15
2023-08-28T09:01:38.577Z,55.37
2023-08-28T09:03:41.041Z,55.10
2023-08-28T09:05:43.092Z,55.22
2023-08-28T09:07:44.797Z,55.39
2023-08-28T09:09:46.372Z,55.27
2023-08-28T09:11:49.721Z,55.31
2023-08-28T09:13:52.290Z,55.21
2023-08-28T09:15:53.831Z,55.39
2023-08-28T09:17:55.377Z,55.21
2023-08-28T09:19:57.369Z,55.08
2023-08-28T09:21:58.825Z,55.37
2023-08-28T09:24:00.338Z,55.18
2023-08-28T09:26:04.122Z,55.04
2023-08-28T09:28:05.790Z,55.36
2023-08-28T09:30:08.185Z,55.52
2023-08-28T09:32:09.723Z,55.22
2023-08-28T09:34:11.528Z,55.25
2023-08-28T09:36:17.380Z,55.42
2023-08-28T09:38:19.496Z,55.12
2023-08-28T09:40:26.676Z,54.96
2023-08-28T09:42:28.460Z,55.34
2023-08-28T09:44:30.062Z,55.28
2023-08-28T09:46:31.649Z,55.14
2023-08-28T09:48:33.578Z,54.99
2023-08-28T09:50:35.950Z,55.25
2023-08-28T09:52:37.435Z,55.19
2023-08-28T09:54:39.005Z,55.19
2023-08-28T09:56:40.810Z,55.33
2023-08-28T09:58:48.106Z,55.21
2023-08-28T10:00:49.760Z,55.50
2023-08-28T10:02:51.712Z,55.39
2023-08-28T10:04:54.206Z,55.13
2023-08-28T10:06:58.792Z,55.47
2023-08-28T10:09:01.618Z,55.38
2023-08-28T10:11:04.172Z,55.47
2023-08-28T10:13:06.748Z,55.64
2023-08-28T10:15:08.972Z,55.24
2023-08-28T10:17:13.666Z,55.12
2023-08-28T10:19:20.919Z,55.24
2023-08-28T10:21:22.437Z,55.60
2023-08-28T10:23:25.134Z,55.18
2023-08-28T10:25:28.555Z,55.41
2023-08-28T10:27:30.581Z,55.45
2023-08-28T10:29:33.572Z,55.35
2023-08-28T10:31:36.832Z,55.38
2023-08-28T10:33:38.477Z,55.61
2023-08-28T10:35:41.780Z,55.49
2023-08-28T10:37:43.947Z,55.39
2023-08-28T10:39:45.676Z,55.30
2023-08-28T10:41:48.055Z,55.51
2023-08-28T10:43:50.018Z,55.09
2023-08-28T10:45:52.301Z,55.18
2023-08-28T10:47:53.925Z,55.32
2023-08-28T10:49:58.586Z,55.33
2023-08-28T10:52:05.973Z,55.29
2023-08-28T10:54:09.282Z,55.33
2023-08-28T10:56:11.689Z,55.26
2023-08-28T10:58:13.194Z,55.02
2023-08-28T11:02:22.709Z,55.08
2023-08-28T11:04:34.483Z,55.10
2023-08-28T11:06:36.067Z,55.33
2023-08-28T11:08:37.647Z,54.86
2023-08-28T11:10:42.279Z,54.90
2023-08-28T11:12:55.238Z,55.12
2023-08-28T11:14:58.527Z,55.01
2023-08-28T11:17:27.008Z,55.04
2023-08-28T11:19:30.072Z,54.87
2023-08-28T11:21:40.389Z,54.99
2023-08-28T11:23:43.771Z,54.92
2023-08-28T11:25:45.508Z,55.15
2023-08-28T11:27:47.931Z,54.69
2023-08-28T11:29:49.501Z,54.72
2023-08-28T11:31:51.089Z,54.71
2023-08-28T11:33:53.202Z,54.71
2023-08-28T11:35:58.836Z,55.00
2023-08-28T11:38:00.444Z,54.81
2023-08-28T11:40:02.692Z,54.70
2023-08-28T11:42:05.098Z,54.66
2023-08-28T11:44:11.526Z,54.88
2023-08-28T11:46:13.688Z,54.64
2023-08-28T11:48:15.288Z,54.93
2023-08-28T11:50:18.429Z,54.48
2023-08-28T11:52:19.979Z,54.74
2023-08-28T11:54:21.988Z,54.84
2023-08-28T11:56:23.667Z,54.64
2023-08-28T11:58:25.215Z,54.79
2023-08-28T12:00:26.858Z,54.82
2023-08-28T12:02:30.290Z,54.77
2023-08-28T12:04:38.032Z,54.64
2023-08-28T12:06:40.884Z,54.84
2023-08-28T12:08:43.161Z,54.66
2023-08-28T12:10:44.853Z,54.77
2023-08-28T12:12:47.767Z,54.45
2023-08-28T12:14:50.622Z,54.38
2023-08-28T12:16:58.970Z,54.75
2023-08-28T12:19:00.519Z,54.90
2023-08-28T12:21:05.137Z,54.58
2023-08-28T12:23:07.624Z,54.81
2023-08-28T12:25:09.433Z,54.45
2023-08-28T12:27:11.574Z,54.82
2023-08-28T12:29:13.122Z,54.35
2023-08-28T12:31:15.432Z,54.21
2023-08-28T12:33:16.969Z,54.30
2023-08-28T12:35:19.175Z,54.17
2023-08-28T12:37:20.731Z,54.23
2023-08-28T12:39:22.305Z,54.15
2023-08-28T12:41:23.926Z,54.13
2023-08-28T12:43:25.427Z,54.04
2023-08-28T12:45:26.900Z,54.24
2023-08-28T12:47:28.328Z,54.34
2023-08-28T12:49:29.861Z,54.00
2023-08-28T12:51:31.445Z,53.98
2023-08-28T12:53:32.903Z,53.81
2023-08-28T12:55:34.465Z,54.08
2023-08-28T12:57:36.122Z,53.92
2023-08-28T12:59:37.651Z,53.83
2023-08-28T13:01:39.303Z,54.17
2023-08-28T13:03:40.961Z,54.26
2023-08-28T13:05:42.817Z,53.89
2023-08-28T13:07:44.499Z,53.85
2023-08-28T13:09:47.257Z,54.23
2023-08-28T13:11:49.102Z,54.23
2023-08-28T13:13:50.698Z,54.35
2023-08-28T13:15:52.795Z,54.41
2023-08-28T13:17:54.326Z,54.19
2023-08-28T13:19:55.778Z,53.90
2023-08-28T13:21:58.572Z,53.65
2023-08-28T13:24:00.519Z,53.80
2023-08-28T13:26:02.028Z,54.01
2023-08-28T13:28:03.577Z,54.25
2023-08-28T13:30:08.316Z,53.94
2023-08-28T13:32:09.870Z,54.14
2023-08-28T13:34:11.485Z,53.69
2023-08-28T13:36:13.307Z,54.11
2023-08-28T13:38:14.969Z,54.15
2023-08-28T13:40:16.552Z,54.08
2023-08-28T13:42:18.036Z,53.97
2023-08-28T13:44:21.691Z,54.07
2023-08-28T13:46:23.165Z,53.90
2023-08-28T13:48:24.768Z,53.90
2023-08-28T13:50:26.271Z,53.68
2023-08-28T13:52:27.749Z,53.77
2023-08-28T13:54:29.309Z,53.64
2023-08-28T13:56:30.827Z,53.72
2023-08-28T13:58:32.858Z,53.52
2023-08-28T14:00:34.460Z,53.54
2023-08-28T14:02:37.314Z,53.62
2023-08-28T14:04:39.133Z,53.41
2023-08-28T14:06:40.730Z,53.07
2023-08-28T14:08:42.192Z,53.76
2023-08-28T14:10:43.781Z,53.47
2023-08-28T14:12:45.558Z,53.10
2023-08-28T14:14:47.019Z,52.96
2023-08-28T14:16:48.512Z,53.39
2023-08-28T14:18:50.048Z,53.64
2023-08-28T14:20:52.573Z,53.24
2023-08-28T14:22:54.061Z,53.19
2023-08-28T14:24:55.932Z,53.43
2023-08-28T14:26:57.429Z,53.17
2023-08-28T14:28:58.975Z,53.32
2023-08-28T14:31:01.047Z,52.64
2023-08-28T14:33:03.252Z,52.57
2023-08-28T14:35:05.163Z,53.11
2023-08-28T14:43:16.979Z,53.12
2023-08-28T14:45:18.509Z,53.10
2023-08-28T14:47:20.014Z,52.56
2023-08-28T14:55:41.401Z,52.49
2023-08-28T14:57:43.042Z,52.46
2023-08-28T14:59:44.485Z,52.26
2023-08-28T15:08:15.634Z,52.78
2023-08-28T15:10:18.981Z,52.96
2023-08-28T15:12:20.497Z,52.27
2023-08-28T15:14:21.953Z,52.56
2023-08-28T15:16:23.539Z,52.23
2023-08-28T15:18:25.002Z,52.25
2023-08-28T15:20:26.485Z,52.19
2023-08-28T15:22:30.980Z,52.59
2023-08-28T15:24:33.816Z,52.78
2023-08-28T15:26:35.499Z,52.85
2023-08-28T15:28:37.493Z,52.41
2023-08-28T15:30:39.127Z,52.88
2023-08-28T15:32:41.426Z,52.46
2023-08-28T15:34:42.978Z,51.95
2023-08-28T15:36:44.829Z,52.66
2023-08-28T15:38:46.292Z,52.16
2023-08-28T15:40:47.797Z,52.55
2023-08-28T15:42:49.549Z,52.55
2023-08-28T15:44:51.364Z,52.80
2023-08-28T15:46:52.876Z,52.91
2023-08-28T15:48:54.347Z,52.23
2023-08-28T15:50:56.876Z,52.88
2023-08-28T15:52:58.367Z,53.09
2023-08-28T15:54:59.895Z,53.03
2023-08-28T15:57:01.341Z,53.11
2023-08-28T15:59:13.556Z,53.17
2023-08-28T16:01:16.308Z,52.96
2023-08-28T16:03:17.900Z,53.19
2023-08-28T16:05:19.578Z,53.29
2023-08-28T16:07:22.569Z,53.21
2023-08-28T16:09:24.331Z,52.90
2023-08-28T16:11:25.762Z,53.11
2023-08-28T16:13:27.334Z,53.16
2023-08-28T16:15:29.014Z,52.87
2023-08-28T16:17:30.529Z,53.10
2023-08-28T16:19:32.152Z,52.60
2023-08-28T16:21:35.972Z,52.59
2023-08-28T16:23:37.649Z,52.58
2023-08-28T16:25:40.104Z,53.18
2023-08-28T16:27:45.056Z,52.65
2023-08-28T16:29:46.676Z,52.78
2023-08-28T16:31:48.184Z,53.06
2023-08-28T16:33:49.967Z,53.08
2023-08-28T16:35:51.488Z,52.90
2023-08-28T16:37:52.983Z,52.28
2023-08-28T16:39:54.450Z,52.61
2023-08-28T16:41:57.805Z,52.99
2023-08-28T16:43:59.321Z,52.80
2023-08-28T16:46:01.178Z,52.43
2023-08-28T16:48:03.052Z,52.78
2023-08-28T16:50:04.844Z,52.46
2023-08-28T16:52:06.548Z,52.74
2023-08-28T16:54:08.199Z,52.67
2023-08-28T16:56:09.963Z,53.07
2023-08-28T16:58:11.940Z,52.84
2023-08-28T17:00:14.858Z,52.71
2023-08-28T17:02:16.460Z,52.87
2023-08-28T17:04:18.051Z,52.09
2023-08-28T17:06:19.676Z,52.62
2023-08-28T17:08:22.522Z,52.30
2023-08-28T17:10:24.051Z,52.44
2023-08-28T17:12:25.576Z,51.90
2023-08-28T17:14:27.504Z,51.03
2023-08-28T17:16:29.075Z,51.84
2023-08-28T17:18:31.880Z,51.18
2023-08-28T17:20:33.390Z,51.63
2023-08-28T17:22:34.842Z,51.54
2023-08-28T17:24:36.321Z,51.86
2023-08-28T17:26:37.806Z,51.82
2023-08-28T17:28:39.758Z,52.13
2023-08-28T17:30:41.366Z,51.70
2023-08-28T17:32:49.340Z,52.02
2023-08-28T17:34:50.834Z,51.43
2023-08-28T17:36:52.456Z,51.99
2023-08-28T17:39:10.574Z,51.70
2023-08-28T17:41:12.159Z,52.34
2023-08-28T17:43:13.702Z,51.74
2023-08-28T17:45:15.168Z,52.19
2023-08-28T17:47:16.628Z,51.70
2023-08-28T17:49:18.115Z,52.34
2023-08-28T17:51:19.713Z,52.49
2023-08-28T17:53:21.360Z,51.83
2023-08-28T17:55:22.813Z,51.89
2023-08-28T17:57:24.598Z,51.49
2023-08-28T17:59:26.106Z,51.83
2023-08-28T18:01:27.743Z,51.75
2023-08-28T18:05:34.571Z,52.46
2023-08-28T18:07:36.919Z,51.59
2023-08-28T18:09:38.614Z,51.61
2023-08-28T18:11:41.569Z,51.86
2023-08-28T18:13:44.634Z,51.71
2023-08-28T18:15:47.661Z,51.95
2023-08-28T18:17:50.932Z,52.17
2023-08-28T18:19:52.471Z,52.17
2023-08-28T18:21:54.174Z,52.22
2023-08-28T18:23:55.803Z,52.13
2023-08-28T18:25:57.276Z,52.55
2023-08-28T18:28:07.030Z,52.34
2023-08-28T18:30:09.972Z,52.16
2023-08-28T18:32:11.553Z,52.28
2023-08-28T18:34:13.170Z,52.22
2023-08-28T18:36:14.628Z,52.41
2023-08-28T18:38:16.496Z,52.54
2023-08-28T18:40:18.288Z,52.41
2023-08-28T18:42:19.864Z,52.70
2023-08-28T18:44:21.465Z,52.63
2023-08-28T18:46:23.039Z,52.65
2023-08-28T18:48:24.654Z,52.45
2023-08-28T18:50:26.897Z,52.83
2023-08-28T18:52:28.425Z,52.73
2023-08-28T18:54:29.938Z,52.76
2023-08-28T18:56:31.424Z,52.70
2023-08-28T18:58:33.064Z,52.79
2023-08-28T19:00:34.983Z,52.80
2023-08-28T19:02:36.511Z,52.57
2023-08-28T19:04:41.138Z,52.91
2023-08-28T19:06:42.675Z,52.68
2023-08-28T19:08:44.336Z,52.72
2023-08-28T19:10:45.987Z,52.82
2023-08-28T19:12:47.885Z,52.86
2023-08-28T19:14:49.733Z,52.76
2023-08-28T19:16:51.287Z,53.01
2023-08-28T19:18:53.251Z,53.04
2023-08-28T19:21:02.664Z,53.06
2023-08-28T19:23:05.580Z,53.07
2023-08-28T19:25:09.687Z,53.11
2023-08-28T19:27:11.154Z,52.90
2023-08-28T19:29:12.640Z,53.14
2023-08-28T19:31:14.107Z,53.05
2023-08-28T19:33:16.888Z,53.24
2023-08-28T19:35:19.696Z,53.11
2023-08-28T19:37:21.292Z,53.17
2023-08-28T19:39:22.849Z,53.17
2023-08-28T19:41:24.421Z,53.17
2023-08-28T19:43:25.870Z,53.28
2023-08-28T19:45:27.308Z,53.31
2023-08-28T19:47:29.332Z,53.00
2023-08-28T19:49:30.834Z,53.31
2023-08-28T19:51:32.430Z,52.92
2023-08-28T19:53:33.921Z,53.08
2023-08-28T19:55:35.898Z,52.93
2023-08-28T19:57:38.404Z,53.37
2023-08-28T19:59:40.100Z,53.10
2023-08-28T20:01:41.759Z,53.41
2023-08-28T20:03:43.367Z,53.33
2023-08-28T20:05:44.892Z,53.37
2023-08-28T20:07:46.485Z,53.39
2023-08-28T20:09:47.955Z,53.48
2023-08-28T20:11:49.480Z,53.30
2023-08-28T20:13:50.960Z,53.13
2023-08-28T20:15:53.696Z,53.46
2023-08-28T20:17:55.210Z,53.50
2023-08-28T20:19:58.577Z,53.47
2023-08-28T20:22:00.590Z,53.33
2023-08-28T20:24:02.014Z,53.57
2023-08-28T20:26:04.040Z,53.49
2023-08-28T20:28:06.054Z,53.21
2023-08-28T20:30:09.532Z,53.22
2023-08-28T20:32:11.582Z,53.45
2023-08-28T20:34:13.081Z,53.20
2023-08-28T20:36:14.527Z,53.39
2023-08-28T20:38:16.061Z,53.39
2023-08-28T20:40:17.568Z,53.53
2023-08-28T20:42:19.076Z,53.46
2023-08-28T20:44:22.583Z,53.28
2023-08-28T20:46:25.951Z,53.65
2023-08-28T20:48:27.438Z,53.48
2023-08-28T20:50:29.412Z,53.51
2023-08-28T20:52:30.900Z,53.64
2023-08-28T20:54:32.417Z,53.60
2023-08-28T20:56:33.929Z,53.62
2023-08-28T20:58:37.887Z,53.51
2023-08-28T21:00:39.435Z,53.69
2023-08-28T21:02:40.951Z,53.49
2023-08-28T21:04:42.582Z,53.62
2023-08-28T21:06:44.066Z,53.42
2023-08-28T21:08:46.396Z,53.61
2023-08-28T21:10:47.961Z,53.50
2023-08-28T21:12:49.522Z,53.21
2023-08-28T21:14:51.029Z,53.49
2023-08-28T21:16:52.518Z,53.48
2023-08-28T21:18:54.382Z,53.23
2023-08-28T21:20:55.868Z,53.57
2023-08-28T21:22:57.344Z,53.38
2023-08-28T21:24:58.835Z,53.55
2023-08-28T21:27:00.349Z,53.23
2023-08-28T21:29:01.903Z,53.33
2023-08-28T21:31:05.210Z,53.07
2023-08-28T21:33:06.970Z,53.63
2023-08-28T21:35:08.926Z,53.34
2023-08-28T21:37:10.427Z,53.44
2023-08-28T21:39:11.907Z,53.41
2023-08-28T21:41:13.448Z,53.38
2023-08-28T21:43:14.897Z,53.34
2023-08-28T21:45:16.325Z,53.42
2023-08-28T21:47:17.882Z,53.22
2023-08-28T21:49:19.390Z,53.34
2023-08-28T21:51:20.853Z,53.19
2023-08-28T21:53:22.321Z,53.10
2023-08-28T21:55:23.816Z,53.27
2023-08-28T21:57:25.473Z,53.21
2023-08-28T21:59:26.957Z,53.55
2023-08-28T22:01:28.569Z,53.08
2023-08-28T22:03:30.009Z,53.59
2023-08-28T22:05:31.495Z,53.32
2023-08-28T22:07:32.962Z,53.38
2023-08-28T22:09:34.602Z,53.32
2023-08-28T22:11:36.091Z,53.30
2023-08-28T22:13:37.649Z,53.42
2023-08-28T22:15:41.821Z,53.29
2023-08-28T22:17:46.110Z,53.65
2023-08-28T22:19:50.111Z,53.47
2023-08-28T22:21:51.579Z,53.49
2023-08-28T22:23:53.137Z,53.30
2023-08-28T22:25:54.702Z,53.16
2023-08-28T22:27:56.178Z,53.46
2023-08-28T22:29:57.714Z,53.57
2023-08-28T22:31:59.465Z,53.56
2023-08-28T22:34:01.004Z,53.43
2023-08-28T22:36:02.435Z,53.38
2023-08-28T22:38:04.318Z,53.45
2023-08-28T22:40:08.441Z,53.27
2023-08-28T22:42:09.979Z,53.47
2023-08-28T22:44:11.499Z,53.44
2023-08-28T22:46:12.996Z,53.45
2023-08-28T22:48:14.625Z,53.08
2023-08-28T22:50:16.212Z,53.44
2023-08-28T22:52:17.785Z,53.57
2023-08-28T22:54:19.245Z,53.33
2023-08-28T22:56:20.731Z,53.48
2023-08-28T22:58:22.291Z,53.38
2023-08-28T23:00:23.817Z,53.54
2023-08-28T23:02:25.430Z,53.21
2023-08-28T23:04:27.183Z,53.34
2023-08-28T23:06:28.736Z,53.56
2023-08-28T23:08:30.467Z,53.68
2023-08-28T23:10:33.086Z,53.54
2023-08-28T23:12:34.616Z,53.42
2023-08-28T23:14:36.184Z,53.40
2023-08-28T23:16:37.684Z,53.53
2023-08-28T23:18:39.203Z,53.62
2023-08-28T23:20:40.941Z,53.58
2023-08-28T23:22:42.725Z,53.43
2023-08-28T23:24:46.224Z,53.63
2023-08-28T23:26:47.757Z,53.46
2023-08-28T23:28:50.144Z,53.37
2023-08-28T23:30:51.617Z,53.33
2023-08-28T23:32:53.230Z,53.44
2023-08-28T23:34:54.889Z,53.73
2023-08-28T23:36:56.408Z,53.63
2023-08-28T23:38:58.124Z,53.64
2023-08-28T23:40:59.671Z,53.35
2023-08-28T23:43:01.145Z,53.55
2023-08-28T23:45:02.979Z,53.50
2023-08-28T23:47:04.517Z,53.36
2023-08-28T23:49:06.176Z,53.57
2023-08-28T23:51:08.128Z,53.52
2023-08-28T23:53:09.757Z,53.25
2023-08-28T23:55:11.253Z,53.54
2023-08-28T23:57:12.753Z,53.54
2023-08-28T23:59:14.305Z,53.43
